createdAt,value
2023-05-08T00:04:33.446Z,0.3
2023-05-08T00:09:32.874Z,0.3
2023-05-08T00:14:33.996Z,0.3
2023-05-08T00:19:20.649Z,0.3
2023-05-08T00:24:20.510Z,0.3
2023-05-08T00:29:20.106Z,0.2
2023-05-08T00:34:17.736Z,0.3
2023-05-08T00:39:17.440Z,0.3
2023-05-08T00:44:17.633Z,0.3
2023-05-08T00:49:17.285Z,0.3
2023-05-08T00:54:16.580Z,0.3
2023-05-08T00:59:16.300Z,0.3
2023-05-08T01:04:16.805Z,0.3
2023-05-08T01:09:16.109Z,0.3
2023-05-08T01:14:17.092Z,0.3
2023-05-08T01:19:13.675Z,0.3
2023-05-08T01:24:13.744Z,0.3
2023-05-08T01:29:12.679Z,0.3
2023-05-08T01:34:12.822Z,0.3
2023-05-08T01:39:10.217Z,0.3
2023-05-08T01:44:09.646Z,0.3
2023-05-08T01:49:09.993Z,0.3
2023-05-08T01:54:10.303Z,0.3
2023-05-08T01:59:09.085Z,0.3
2023-05-08T02:00:55.314Z,0.3
2023-05-08T02:05:28.305Z,0.3
2023-05-08T02:15:36.272Z,0.3
2023-05-08T02:20:36.783Z,0.2
2023-05-08T02:25:36.854Z,0.2
2023-05-08T02:30:36.031Z,0.3
2023-05-08T02:35:35.925Z,0.3
2023-05-08T02:40:36.390Z,0.3
2023-05-08T02:45:36.354Z,0.3
2023-05-08T02:50:33.718Z,0.2
2023-05-08T02:55:33.309Z,0.2
2023-05-08T03:59:34.580Z,0.9
2023-05-08T04:04:35.397Z,1.1
2023-05-08T04:09:32.473Z,1.6
2023-05-08T04:14:32.253Z,2.6
2023-05-08T04:19:33.549Z,3.5
2023-05-08T04:24:20.135Z,4
2023-05-08T04:29:20.408Z,4.3
2023-05-08T04:34:19.166Z,5.6
2023-05-08T04:39:20.521Z,6.5
2023-05-08T04:44:16.524Z,8.1
2023-05-08T04:49:16.171Z,11.8
2023-05-08T04:54:16.433Z,13.8
2023-05-08T05:29:12.888Z,14
2023-05-08T05:39:11.787Z,17.9
2023-05-08T05:49:10.465Z,19.2
2023-05-08T05:54:10.325Z,19.5
2023-05-08T05:59:10.108Z,20.9
2023-05-08T06:00:58.666Z,20.8
2023-05-08T06:05:29.487Z,24.3
2023-05-08T06:10:29.326Z,19.6
2023-05-08T06:15:28.774Z,18.4
2023-05-08T06:20:28.773Z,14.9
2023-05-08T06:25:36.866Z,14.3
2023-05-08T06:30:36.201Z,16.3
2023-05-08T06:40:43.952Z,32.5
2023-05-08T06:45:35.714Z,37.5
2023-05-08T06:50:35.366Z,50.4
2023-05-08T06:55:34.399Z,73.4
2023-05-08T06:59:46.258Z,98.9
2023-05-08T07:14:43.197Z,75.4
2023-05-08T07:19:43.934Z,68
2023-05-08T07:24:42.857Z,71
2023-05-08T07:29:42.677Z,86.8
2023-05-08T07:34:41.565Z,94.4
2023-05-08T07:44:53.456Z,92.7
2023-05-08T07:49:40.770Z,87.8
2023-05-08T07:54:41.973Z,75.7
2023-05-08T08:04:37.161Z,92.5
2023-05-08T08:09:35.978Z,99.5
2023-05-08T08:14:33.987Z,99.6
2023-05-08T08:19:33.194Z,98.1
2023-05-08T08:24:33.672Z,102.5
2023-05-08T08:29:32.222Z,98
2023-05-08T08:34:32.410Z,90.6
2023-05-08T08:39:34.735Z,112.5
2023-05-08T08:44:19.672Z,127.7
2023-05-08T08:49:19.484Z,139.3
2023-05-08T08:54:19.514Z,122.8
2023-05-08T08:59:19.517Z,97.9
2023-05-08T09:04:21.834Z,92.1
2023-05-08T09:09:18.288Z,77.4
2023-05-08T09:14:18.408Z,64.1
2023-05-08T09:19:18.440Z,74.1
2023-05-08T09:24:18.758Z,88.2
2023-05-08T09:29:15.503Z,99.7
2023-05-08T09:34:15.568Z,128.5
2023-05-08T09:39:14.833Z,151.6
2023-05-08T09:44:14.865Z,163.7
2023-05-08T09:49:12.495Z,137.9
2023-05-08T09:54:12.248Z,113.6
2023-05-08T09:59:11.393Z,86
2023-05-08T10:04:11.684Z,69.3
2023-05-08T10:14:10.544Z,63.2
2023-05-08T10:19:09.824Z,66.4
2023-05-08T10:29:06.996Z,74.2
2023-05-08T10:34:06.671Z,73.7
2023-05-08T10:44:06.351Z,80.3
2023-05-08T10:49:05.460Z,78.6
2023-05-08T10:59:04.800Z,81
2023-05-08T11:00:51.521Z,80.6
2023-05-08T11:05:35.304Z,81.9
2023-05-08T11:10:35.581Z,78.4
2023-05-08T11:15:37.142Z,66.7
2023-05-08T11:20:33.906Z,68.8
2023-05-08T11:25:33.838Z,94.7
2023-05-08T11:30:33.838Z,118.8
2023-05-08T11:35:32.793Z,136
2023-05-08T11:40:33.216Z,155.8
2023-05-08T11:45:32.733Z,171.6
2023-05-08T11:50:31.951Z,194.9
2023-05-08T11:55:31.734Z,191
2023-05-08T12:49:49.185Z,206.9
2023-05-08T12:54:45.873Z,195.3
2023-05-08T12:58:51.901Z,201.6
2023-05-08T13:03:59.483Z,248.8
2023-05-08T13:08:51.143Z,265.5
2023-05-08T13:13:48.873Z,257.7
2023-05-08T13:18:48.881Z,259.2
2023-05-08T13:23:49.037Z,204.1
2023-05-08T13:28:49.386Z,200.9
2023-05-08T13:33:45.970Z,172.5
2023-05-08T13:38:45.997Z,177.2
2023-05-08T13:43:45.746Z,189.8
2023-05-08T13:48:45.224Z,224.7
2023-05-08T13:53:42.745Z,238.1
2023-05-08T13:58:42.429Z,231.7
2023-05-08T14:50:09.260Z,214.9
2023-05-08T14:54:57.181Z,240.5
2023-05-08T14:59:55.185Z,325.3
2023-05-08T15:04:47.771Z,235.9
2023-05-08T15:09:49.049Z,224.1
2023-05-08T15:19:44.794Z,194.1
2023-05-08T15:24:43.860Z,437.1
2023-05-08T15:29:43.755Z,172.4
2023-05-08T15:34:41.315Z,151.2
2023-05-08T15:39:41.167Z,103.8
2023-05-08T15:49:39.971Z,99.8
2023-05-08T15:54:39.169Z,82.1
2023-05-08T15:59:36.744Z,88.8
2023-05-08T16:04:35.833Z,79.2
2023-05-08T16:09:36.982Z,60.8
2023-05-08T16:14:33.845Z,51.7
2023-05-08T16:19:34.453Z,45.9
2023-05-08T16:24:33.486Z,52.7
2023-05-08T16:29:28.919Z,59
2023-05-08T16:34:20.463Z,56.2
2023-05-08T16:39:21.805Z,53.4
2023-05-08T16:44:18.097Z,55.6
2023-05-08T16:49:17.984Z,86.3
2023-05-08T16:54:19.198Z,71.1
2023-05-08T16:59:16.904Z,107.5
2023-05-08T17:04:14.418Z,86
2023-05-08T17:09:14.316Z,76.8
2023-05-08T17:14:14.208Z,65.3
2023-05-08T17:19:14.051Z,56.1
2023-05-08T17:24:13.116Z,49.9
2023-05-08T17:29:12.792Z,47.4
2023-05-08T17:34:12.970Z,41.8
2023-05-08T17:39:12.516Z,33.2
2023-05-08T17:44:13.372Z,27.2
2023-05-08T17:49:09.799Z,24.7
2023-05-08T17:54:09.889Z,20.1
2023-05-08T17:59:09.369Z,19.5
2023-05-08T18:04:09.368Z,13.5
2023-05-08T18:09:07.030Z,11.5
2023-05-08T18:14:06.373Z,10.6
2023-05-08T18:19:05.999Z,9
2023-05-08T18:24:07.166Z,8.6
2023-05-08T18:29:03.327Z,7.5
2023-05-08T18:34:03.179Z,6.4
2023-05-08T18:39:02.620Z,4.7
2023-05-08T18:44:02.082Z,3.7
2023-05-08T18:48:59.715Z,2.2
2023-05-08T18:54:00.047Z,1.5
2023-05-08T18:58:59.255Z,1
2023-05-08T19:00:46.430Z,0.9
2023-05-08T19:05:19.360Z,0.6
2023-05-08T19:10:19.218Z,0.4
2023-05-08T19:15:19.214Z,0.3
2023-05-08T19:20:18.871Z,0.3
2023-05-08T19:25:18.054Z,0.3
2023-05-08T19:30:17.882Z,0.3
2023-05-08T19:35:17.800Z,0.3
2023-05-08T19:40:17.546Z,0.2
2023-05-08T19:45:18.375Z,0.2
2023-05-08T19:50:14.871Z,0.2
2023-05-08T19:55:14.445Z,0.2
2023-05-08T20:59:35.065Z,0.2
2023-05-08T21:04:36.370Z,0.2
2023-05-08T21:09:33.514Z,0.2
2023-05-08T21:14:32.977Z,0.3
2023-05-08T21:19:33.162Z,0.2
2023-05-08T21:24:20.664Z,0.2
2023-05-08T21:29:20.259Z,0.2
2023-05-08T21:34:20.240Z,0.2
2023-05-08T21:39:21.388Z,0.2
2023-05-08T21:44:17.910Z,0.2
2023-05-08T21:49:17.454Z,0.2
2023-05-08T21:54:16.956Z,0.2
2023-05-08T21:59:16.582Z,0.2
2023-05-08T22:04:14.350Z,0.2
2023-05-08T22:09:13.900Z,0.2
2023-05-08T22:14:13.080Z,0.2
2023-05-08T22:19:12.767Z,0.2
2023-05-08T22:24:12.091Z,0.2
2023-05-08T22:29:11.886Z,0.3
2023-05-08T22:34:11.843Z,0.2
2023-05-08T22:39:11.441Z,0.2
2023-05-08T22:44:13.045Z,0.2
2023-05-08T22:49:09.134Z,0.2
2023-05-08T22:54:08.972Z,0.2
2023-05-08T22:59:08.204Z,0.2
2023-05-08T23:04:07.921Z,0.2
2023-05-08T23:09:05.693Z,0.2
2023-05-08T23:14:04.858Z,0.2
2023-05-08T23:19:04.131Z,0.2
2023-05-08T23:24:05.433Z,0.2
2023-05-08T23:29:01.551Z,0.2
2023-05-08T23:34:01.493Z,0.2
2023-05-08T23:39:00.814Z,0.2
2023-05-08T23:44:00.684Z,0.2
2023-05-08T23:48:58.136Z,0.2
2023-05-08T23:53:57.853Z,0.2
2023-05-08T23:58:56.994Z,0.2
